sensor_id;sensor_type;location;lat;lon;timestamp;pressure;altitude;pressure_sealevel;temperature
45701;BMP280;36277;32.852;-116.998;2024-03-02T00:01:10;100423.31;;;25.56
45701;BMP280;36277;32.852;-116.998;2024-03-02T00:03:41;100421.88;;;25.60
45701;BMP280;36277;32.852;-116.998;2024-03-02T00:06:08;100420.59;;;25.62
45701;BMP280;36277;32.852;-116.998;2024-03-02T00:08:35;100420.66;;;25.69
45701;BMP280;36277;32.852;-116.998;2024-03-02T00:11:02;100409.47;;;25.77
45701;BMP280;36277;32.852;-116.998;2024-03-02T00:13:29;100413.38;;;25.82
45701;BMP280;36277;32.852;-116.998;2024-03-02T00:15:59;100419.19;;;25.87
45701;BMP280;36277;32.852;-116.998;2024-03-02T00:18:33;100412.22;;;25.91
45701;BMP280;36277;32.852;-116.998;2024-03-02T00:21:01;100412.00;;;25.93
45701;BMP280;36277;32.852;-116.998;2024-03-02T00:23:30;100413.75;;;26.00
45701;BMP280;36277;32.852;-116.998;2024-03-02T00:25:57;100408.22;;;26.00
45701;BMP280;36277;32.852;-116.998;2024-03-02T00:28:25;100412.97;;;26.06
45701;BMP280;36277;32.852;-116.998;2024-03-02T00:31:09;100408.03;;;26.02
45701;BMP280;36277;32.852;-116.998;2024-03-02T00:36:08;100412.56;;;26.09
45701;BMP280;36277;32.852;-116.998;2024-03-02T00:38:51;100413.69;;;26.15
45701;BMP280;36277;32.852;-116.998;2024-03-02T00:41:22;100408.13;;;26.36
45701;BMP280;36277;32.852;-116.998;2024-03-02T00:44:05;100405.75;;;26.60
45701;BMP280;36277;32.852;-116.998;2024-03-02T00:46:42;100416.06;;;26.79
45701;BMP280;36277;32.852;-116.998;2024-03-02T00:49:18;100416.31;;;26.84
45701;BMP280;36277;32.852;-116.998;2024-03-02T00:51:47;100406.97;;;26.85
45701;BMP280;36277;32.852;-116.998;2024-03-02T00:54:25;100411.25;;;26.87
45701;BMP280;36277;32.852;-116.998;2024-03-02T00:56:54;100418.84;;;26.79
45701;BMP280;36277;32.852;-116.998;2024-03-02T00:59:25;100410.72;;;26.71
45701;BMP280;36277;32.852;-116.998;2024-03-02T01:01:51;100414.31;;;26.65
45701;BMP280;36277;32.852;-116.998;2024-03-02T01:04:18;100421.72;;;26.58
45701;BMP280;36277;32.852;-116.998;2024-03-02T01:06:44;100423.63;;;26.57
45701;BMP280;36277;32.852;-116.998;2024-03-02T01:09:11;100429.56;;;26.54
45701;BMP280;36277;32.852;-116.998;2024-03-02T01:11:38;100432.31;;;26.48
45701;BMP280;36277;32.852;-116.998;2024-03-02T01:14:05;100437.38;;;26.44
45701;BMP280;36277;32.852;-116.998;2024-03-02T01:16:31;100440.50;;;26.41
45701;BMP280;36277;32.852;-116.998;2024-03-02T01:18:57;100429.81;;;26.38
45701;BMP280;36277;32.852;-116.998;2024-03-02T01:21:24;100427.72;;;26.40
45701;BMP280;36277;32.852;-116.998;2024-03-02T01:23:50;100433.06;;;26.42
45701;BMP280;36277;32.852;-116.998;2024-03-02T01:26:16;100433.47;;;26.39
45701;BMP280;36277;32.852;-116.998;2024-03-02T01:28:42;100425.16;;;26.39
45701;BMP280;36277;32.852;-116.998;2024-03-02T01:31:09;100435.19;;;26.40
45701;BMP280;36277;32.852;-116.998;2024-03-02T01:33:35;100437.06;;;26.39
45701;BMP280;36277;32.852;-116.998;2024-03-02T01:36:01;100437.50;;;26.37
45701;BMP280;36277;32.852;-116.998;2024-03-02T01:38:27;100434.53;;;26.38
45701;BMP280;36277;32.852;-116.998;2024-03-02T01:40:54;100437.03;;;26.33
45701;BMP280;36277;32.852;-116.998;2024-03-02T01:43:22;100438.31;;;26.31
45701;BMP280;36277;32.852;-116.998;2024-03-02T01:45:48;100437.25;;;26.32
45701;BMP280;36277;32.852;-116.998;2024-03-02T01:48:14;100447.66;;;26.30
45701;BMP280;36277;32.852;-116.998;2024-03-02T01:50:41;100452.31;;;26.29
45701;BMP280;36277;32.852;-116.998;2024-03-02T01:53:09;100459.56;;;26.30
45701;BMP280;36277;32.852;-116.998;2024-03-02T01:55:35;100455.31;;;26.28
45701;BMP280;36277;32.852;-116.998;2024-03-02T01:58:01;100460.19;;;26.26
45701;BMP280;36277;32.852;-116.998;2024-03-02T02:00:28;100458.69;;;26.23
45701;BMP280;36277;32.852;-116.998;2024-03-02T02:02:55;100468.22;;;26.21
45701;BMP280;36277;32.852;-116.998;2024-03-02T02:05:23;100474.41;;;26.23
45701;BMP280;36277;32.852;-116.998;2024-03-02T02:07:49;100468.44;;;26.19
45701;BMP280;36277;32.852;-116.998;2024-03-02T02:10:15;100486.75;;;26.20
45701;BMP280;36277;32.852;-116.998;2024-03-02T02:12:42;100481.59;;;26.17
45701;BMP280;36277;32.852;-116.998;2024-03-02T02:15:28;100475.84;;;26.19
45701;BMP280;36277;32.852;-116.998;2024-03-02T02:17:56;100484.56;;;26.16
45701;BMP280;36277;32.852;-116.998;2024-03-02T02:20:23;100484.38;;;26.17
45701;BMP280;36277;32.852;-116.998;2024-03-02T02:23:01;100491.81;;;26.17
45701;BMP280;36277;32.852;-116.998;2024-03-02T02:25:28;100491.75;;;26.10
45701;BMP280;36277;32.852;-116.998;2024-03-02T02:27:55;100494.34;;;26.12
45701;BMP280;36277;32.852;-116.998;2024-03-02T02:30:27;100504.53;;;26.11
45701;BMP280;36277;32.852;-116.998;2024-03-02T02:32:53;100502.16;;;26.08
45701;BMP280;36277;32.852;-116.998;2024-03-02T02:35:20;100499.38;;;26.08
45701;BMP280;36277;32.852;-116.998;2024-03-02T02:37:47;100500.25;;;26.09
45701;BMP280;36277;32.852;-116.998;2024-03-02T02:40:13;100499.38;;;26.08
45701;BMP280;36277;32.852;-116.998;2024-03-02T02:42:40;100492.34;;;26.06
45701;BMP280;36277;32.852;-116.998;2024-03-02T02:45:07;100486.56;;;26.01
45701;BMP280;36277;32.852;-116.998;2024-03-02T02:47:33;100492.75;;;26.03
45701;BMP280;36277;32.852;-116.998;2024-03-02T02:50:06;100489.97;;;26.03
45701;BMP280;36277;32.852;-116.998;2024-03-02T02:52:36;100496.75;;;26.00
45701;BMP280;36277;32.852;-116.998;2024-03-02T02:55:05;100498.88;;;25.98
45701;BMP280;36277;32.852;-116.998;2024-03-02T02:57:32;100501.81;;;25.97
45701;BMP280;36277;32.852;-116.998;2024-03-02T03:00:04;100505.63;;;25.96
45701;BMP280;36277;32.852;-116.998;2024-03-02T03:02:31;100510.34;;;25.95
45701;BMP280;36277;32.852;-116.998;2024-03-02T03:04:58;100512.03;;;25.96
45701;BMP280;36277;32.852;-116.998;2024-03-02T03:07:24;100515.88;;;25.95
45701;BMP280;36277;32.852;-116.998;2024-03-02T03:09:51;100513.66;;;25.91
45701;BMP280;36277;32.852;-116.998;2024-03-02T03:12:17;100518.75;;;25.87
45701;BMP280;36277;32.852;-116.998;2024-03-02T03:14:43;100525.31;;;25.86
45701;BMP280;36277;32.852;-116.998;2024-03-02T03:17:09;100524.50;;;25.86
45701;BMP280;36277;32.852;-116.998;2024-03-02T03:19:37;100520.00;;;25.85
45701;BMP280;36277;32.852;-116.998;2024-03-02T03:22:04;100531.63;;;25.80
45701;BMP280;36277;32.852;-116.998;2024-03-02T03:24:30;100530.09;;;25.78
45701;BMP280;36277;32.852;-116.998;2024-03-02T03:26:56;100531.81;;;25.79
45701;BMP280;36277;32.852;-116.998;2024-03-02T03:29:22;100535.28;;;25.81
45701;BMP280;36277;32.852;-116.998;2024-03-02T03:31:49;100529.22;;;25.77
45701;BMP280;36277;32.852;-116.998;2024-03-02T03:34:15;100530.94;;;25.78
45701;BMP280;36277;32.852;-116.998;2024-03-02T03:36:42;100537.72;;;25.76
45701;BMP280;36277;32.852;-116.998;2024-03-02T03:39:09;100531.75;;;25.72
45701;BMP280;36277;32.852;-116.998;2024-03-02T03:41:35;100538.50;;;25.70
45701;BMP280;36277;32.852;-116.998;2024-03-02T03:44:01;100538.31;;;25.71
45701;BMP280;36277;32.852;-116.998;2024-03-02T03:46:27;100542.31;;;25.69
45701;BMP280;36277;32.852;-116.998;2024-03-02T03:48:54;100541.84;;;25.65
45701;BMP280;36277;32.852;-116.998;2024-03-02T03:51:21;100536.50;;;25.64
45701;BMP280;36277;32.852;-116.998;2024-03-02T03:53:50;100540.97;;;25.65
45701;BMP280;36277;32.852;-116.998;2024-03-02T03:56:16;100540.13;;;25.64
45701;BMP280;36277;32.852;-116.998;2024-03-02T03:58:43;100544.63;;;25.65
45701;BMP280;36277;32.852;-116.998;2024-03-02T04:01:09;100539.69;;;25.61
45701;BMP280;36277;32.852;-116.998;2024-03-02T04:03:35;100540.72;;;25.60
45701;BMP280;36277;32.852;-116.998;2024-03-02T04:06:01;100542.63;;;25.59
45701;BMP280;36277;32.852;-116.998;2024-03-02T04:08:28;100540.72;;;25.60
45701;BMP280;36277;32.852;-116.998;2024-03-02T04:10:54;100539.03;;;25.59
45701;BMP280;36277;32.852;-116.998;2024-03-02T04:13:21;100536.81;;;25.54
45701;BMP280;36277;32.852;-116.998;2024-03-02T04:15:47;100542.16;;;25.56
45701;BMP280;36277;32.852;-116.998;2024-03-02T04:18:13;100535.31;;;25.52
45701;BMP280;36277;32.852;-116.998;2024-03-02T04:20:39;100542.72;;;25.51
45701;BMP280;36277;32.852;-116.998;2024-03-02T04:23:06;100547.13;;;25.46
45701;BMP280;36277;32.852;-116.998;2024-03-02T04:25:32;100541.22;;;25.49
45701;BMP280;36277;32.852;-116.998;2024-03-02T04:27:58;100533.50;;;25.44
45701;BMP280;36277;32.852;-116.998;2024-03-02T04:30:24;100526.94;;;25.45
45701;BMP280;36277;32.852;-116.998;2024-03-02T04:32:51;100531.59;;;25.45
45701;BMP280;36277;32.852;-116.998;2024-03-02T04:35:17;100539.41;;;25.41
45701;BMP280;36277;32.852;-116.998;2024-03-02T04:37:43;100541.69;;;25.38
45701;BMP280;36277;32.852;-116.998;2024-03-02T04:40:10;100552.94;;;25.36
45701;BMP280;36277;32.852;-116.998;2024-03-02T04:42:36;100547.41;;;25.36
45701;BMP280;36277;32.852;-116.998;2024-03-02T04:45:03;100548.94;;;25.39
45701;BMP280;36277;32.852;-116.998;2024-03-02T04:47:29;100540.47;;;25.40
45701;BMP280;36277;32.852;-116.998;2024-03-02T04:49:55;100544.47;;;25.38
45701;BMP280;36277;32.852;-116.998;2024-03-02T04:52:21;100539.34;;;25.35
45701;BMP280;36277;32.852;-116.998;2024-03-02T04:54:48;100534.28;;;25.38
45701;BMP280;36277;32.852;-116.998;2024-03-02T04:57:32;100546.09;;;25.32
45701;BMP280;36277;32.852;-116.998;2024-03-02T04:59:58;100552.00;;;25.29
45701;BMP280;36277;32.852;-116.998;2024-03-02T05:02:24;100568.41;;;25.31
45701;BMP280;36277;32.852;-116.998;2024-03-02T05:04:51;100575.72;;;25.24
45701;BMP280;36277;32.852;-116.998;2024-03-02T05:07:17;100584.84;;;25.25
45701;BMP280;36277;32.852;-116.998;2024-03-02T05:09:43;100579.34;;;25.25
45701;BMP280;36277;32.852;-116.998;2024-03-02T05:12:10;100584.47;;;25.27
45701;BMP280;36277;32.852;-116.998;2024-03-02T05:14:55;100579.34;;;25.25
45701;BMP280;36277;32.852;-116.998;2024-03-02T05:17:21;100589.75;;;25.23
45701;BMP280;36277;32.852;-116.998;2024-03-02T05:19:48;100582.97;;;25.25
45701;BMP280;36277;32.852;-116.998;2024-03-02T05:22:14;100586.31;;;25.21
45701;BMP280;36277;32.852;-116.998;2024-03-02T05:24:40;100587.06;;;25.15
45701;BMP280;36277;32.852;-116.998;2024-03-02T05:27:06;100584.97;;;25.17
45701;BMP280;36277;32.852;-116.998;2024-03-02T05:29:33;100589.13;;;25.13
45701;BMP280;36277;32.852;-116.998;2024-03-02T05:31:59;100581.88;;;25.12
45701;BMP280;36277;32.852;-116.998;2024-03-02T05:34:25;100586.75;;;25.10
45701;BMP280;36277;32.852;-116.998;2024-03-02T05:36:51;100592.94;;;25.12
45701;BMP280;36277;32.852;-116.998;2024-03-02T05:39:18;100590.53;;;25.09
45701;BMP280;36277;32.852;-116.998;2024-03-02T05:41:44;100589.03;;;25.06
45701;BMP280;36277;32.852;-116.998;2024-03-02T05:44:10;100581.97;;;25.04
45701;BMP280;36277;32.852;-116.998;2024-03-02T05:46:38;100574.56;;;25.04
45701;BMP280;36277;32.852;-116.998;2024-03-02T05:49:04;100576.66;;;25.02
45701;BMP280;36277;32.852;-116.998;2024-03-02T05:51:30;100575.41;;;25.05
45701;BMP280;36277;32.852;-116.998;2024-03-02T05:53:56;100575.41;;;25.05
45701;BMP280;36277;32.852;-116.998;2024-03-02T05:56:23;100582.53;;;24.99
45701;BMP280;36277;32.852;-116.998;2024-03-02T05:58:49;100576.34;;;24.97
45701;BMP280;36277;32.852;-116.998;2024-03-02T06:01:15;100580.59;;;24.85
45701;BMP280;36277;32.852;-116.998;2024-03-02T06:03:43;100576.56;;;24.96
45701;BMP280;36277;32.852;-116.998;2024-03-02T06:06:10;100574.44;;;24.98
45701;BMP280;36277;32.852;-116.998;2024-03-02T06:08:36;100561.03;;;24.95
45701;BMP280;36277;32.852;-116.998;2024-03-02T06:11:02;100568.06;;;24.97
45701;BMP280;36277;32.852;-116.998;2024-03-02T06:13:29;100556.72;;;24.92
45701;BMP280;36277;32.852;-116.998;2024-03-02T06:15:55;100557.28;;;24.88
45701;BMP280;36277;32.852;-116.998;2024-03-02T06:18:21;100555.94;;;24.84
45701;BMP280;36277;32.852;-116.998;2024-03-02T06:20:48;100563.19;;;24.85
45701;BMP280;36277;32.852;-116.998;2024-03-02T06:23:14;100557.28;;;24.88
45701;BMP280;36277;32.852;-116.998;2024-03-02T06:25:41;100559.00;;;24.89
45701;BMP280;36277;32.852;-116.998;2024-03-02T06:28:07;100549.59;;;24.83
45701;BMP280;36277;32.852;-116.998;2024-03-02T06:30:34;100540.63;;;24.81
45701;BMP280;36277;32.852;-116.998;2024-03-02T06:33:00;100541.69;;;24.80
45701;BMP280;36277;32.852;-116.998;2024-03-02T06:35:26;100532.91;;;24.77
45701;BMP280;36277;32.852;-116.998;2024-03-02T06:37:52;100531.00;;;24.77
45701;BMP280;36277;32.852;-116.998;2024-03-02T06:40:19;100532.53;;;24.80
45701;BMP280;36277;32.852;-116.998;2024-03-02T06:42:46;100529.47;;;24.75
45701;BMP280;36277;32.852;-116.998;2024-03-02T06:45:12;100526.91;;;24.73
45701;BMP280;36277;32.852;-116.998;2024-03-02T06:47:38;100513.69;;;24.69
45701;BMP280;36277;32.852;-116.998;2024-03-02T06:50:05;100515.41;;;24.70
45701;BMP280;36277;32.852;-116.998;2024-03-02T06:52:32;100517.09;;;24.71
45701;BMP280;36277;32.852;-116.998;2024-03-02T06:54:59;100515.19;;;24.71
45701;BMP280;36277;32.852;-116.998;2024-03-02T06:57:25;100513.69;;;24.69
45701;BMP280;36277;32.852;-116.998;2024-03-02T06:59:51;100522.13;;;24.67
45701;BMP280;36277;32.852;-116.998;2024-03-02T07:02:20;100525.47;;;24.63
45701;BMP280;36277;32.852;-116.998;2024-03-02T07:04:48;100527.19;;;24.64
45701;BMP280;36277;32.852;-116.998;2024-03-02T07:07:17;100532.88;;;24.62
45701;BMP280;36277;32.852;-116.998;2024-03-02T07:09:43;100519.94;;;24.63
45701;BMP280;36277;32.852;-116.998;2024-03-02T07:12:09;100530.47;;;24.59
45701;BMP280;36277;32.852;-116.998;2024-03-02T07:14:35;100524.84;;;24.53
45701;BMP280;36277;32.852;-116.998;2024-03-02T07:17:37;100529.91;;;24.49
45701;BMP280;36277;32.852;-116.998;2024-03-02T07:20:04;100538.50;;;24.54
45701;BMP280;36277;32.852;-116.998;2024-03-02T07:22:30;100525.06;;;24.51
45701;BMP280;36277;32.852;-116.998;2024-03-02T07:24:56;100531.06;;;24.55
45701;BMP280;36277;32.852;-116.998;2024-03-02T07:27:23;100534.47;;;24.57
45701;BMP280;36277;32.852;-116.998;2024-03-02T07:29:49;100537.97;;;24.51
45701;BMP280;36277;32.852;-116.998;2024-03-02T07:32:15;100530.63;;;24.43
45701;BMP280;36277;32.852;-116.998;2024-03-02T07:34:41;100526.81;;;24.44
45701;BMP280;36277;32.852;-116.998;2024-03-02T07:37:07;100525.97;;;24.44
45701;BMP280;36277;32.852;-116.998;2024-03-02T07:39:34;100522.16;;;24.45
45701;BMP280;36277;32.852;-116.998;2024-03-02T07:42:00;100523.75;;;24.39
45701;BMP280;36277;32.852;-116.998;2024-03-02T07:44:27;100518.91;;;24.41
45701;BMP280;36277;32.852;-116.998;2024-03-02T07:46:53;100522.22;;;24.37
45701;BMP280;36277;32.852;-116.998;2024-03-02T07:49:19;100521.56;;;24.35
45701;BMP280;36277;32.852;-116.998;2024-03-02T07:51:46;100519.84;;;24.34
45701;BMP280;36277;32.852;-116.998;2024-03-02T07:54:12;100521.09;;;24.31
45701;BMP280;36277;32.852;-116.998;2024-03-02T07:56:39;100524.00;;;24.30
45701;BMP280;36277;32.852;-116.998;2024-03-02T07:59:05;100520.41;;;24.29
45701;BMP280;36277;32.852;-116.998;2024-03-02T08:01:33;100514.03;;;24.29
45701;BMP280;36277;32.852;-116.998;2024-03-02T08:04:00;100518.50;;;24.30
45701;BMP280;36277;32.852;-116.998;2024-03-02T08:06:29;100514.91;;;24.29
45701;BMP280;36277;32.852;-116.998;2024-03-02T08:08:59;100512.13;;;24.29
45701;BMP280;36277;32.852;-116.998;2024-03-02T08:11:26;100506.31;;;24.24
45701;BMP280;36277;32.852;-116.998;2024-03-02T08:13:56;100518.03;;;24.26
45701;BMP280;36277;32.852;-116.998;2024-03-02T08:16:23;100511.53;;;24.19
45701;BMP280;36277;32.852;-116.998;2024-03-02T08:18:52;100512.66;;;24.25
45701;BMP280;36277;32.852;-116.998;2024-03-02T08:21:19;100510.28;;;24.22
45701;BMP280;36277;32.852;-116.998;2024-03-02T08:23:46;100515.78;;;24.22
45701;BMP280;36277;32.852;-116.998;2024-03-02T08:26:12;100508.97;;;24.18
45701;BMP280;36277;32.852;-116.998;2024-03-02T08:28:39;100512.19;;;24.21
45701;BMP280;36277;32.852;-116.998;2024-03-02T08:31:08;100510.69;;;24.19
45701;BMP280;36277;32.852;-116.998;2024-03-02T08:33:35;100511.03;;;24.16
45701;BMP280;36277;32.852;-116.998;2024-03-02T08:36:01;100512.41;;;24.20
45701;BMP280;36277;32.852;-116.998;2024-03-02T08:38:28;100510.00;;;24.17
45701;BMP280;36277;32.852;-116.998;2024-03-02T08:40:55;100508.81;;;24.12
45701;BMP280;36277;32.852;-116.998;2024-03-02T08:43:21;100510.06;;;24.09
45701;BMP280;36277;32.852;-116.998;2024-03-02T08:45:51;100504.53;;;24.09
45701;BMP280;36277;32.852;-116.998;2024-03-02T08:48:17;100510.06;;;24.09
45701;BMP280;36277;32.852;-116.998;2024-03-02T08:50:43;100504.75;;;24.08
45701;BMP280;36277;32.852;-116.998;2024-03-02T08:53:09;100500.44;;;24.05
45701;BMP280;36277;32.852;-116.998;2024-03-02T08:55:36;100509.94;;;24.03
45701;BMP280;36277;32.852;-116.998;2024-03-02T08:58:02;100515.94;;;24.06
45701;BMP280;36277;32.852;-116.998;2024-03-02T09:00:29;100510.41;;;24.06
45701;BMP280;36277;32.852;-116.998;2024-03-02T09:02:55;100510.25;;;24.08
45701;BMP280;36277;32.852;-116.998;2024-03-02T09:05:21;100502.34;;;24.05
45701;BMP280;36277;32.852;-116.998;2024-03-02T09:07:47;100499.59;;;24.05
45701;BMP280;36277;32.852;-116.998;2024-03-02T09:10:13;100509.06;;;24.02
45701;BMP280;36277;32.852;-116.998;2024-03-02T09:12:40;100502.75;;;23.94
45701;BMP280;36277;32.852;-116.998;2024-03-02T09:15:07;100508.47;;;23.92
45701;BMP280;36277;32.852;-116.998;2024-03-02T09:17:33;100503.63;;;23.94
45701;BMP280;36277;32.852;-116.998;2024-03-02T09:19:59;100501.94;;;23.93
45701;BMP280;36277;32.852;-116.998;2024-03-02T09:22:26;100496.41;;;23.93
45701;BMP280;36277;32.852;-116.998;2024-03-02T09:24:52;100489.19;;;23.92
45701;BMP280;36277;32.852;-116.998;2024-03-02T09:27:18;100483.00;;;23.90
45701;BMP280;36277;32.852;-116.998;2024-03-02T09:29:44;100481.94;;;23.91
45701;BMP280;36277;32.852;-116.998;2024-03-02T09:32:13;100482.78;;;23.92
45701;BMP280;36277;32.852;-116.998;2024-03-02T09:34:40;100471.28;;;23.88
45701;BMP280;36277;32.852;-116.998;2024-03-02T09:37:06;100462.34;;;23.86
45701;BMP280;36277;32.852;-116.998;2024-03-02T09:39:32;100466.81;;;23.87
45701;BMP280;36277;32.852;-116.998;2024-03-02T09:41:59;100459.38;;;23.88
45701;BMP280;36277;32.852;-116.998;2024-03-02T09:44:26;100457.88;;;23.85
45701;BMP280;36277;32.852;-116.998;2024-03-02T09:46:52;100456.47;;;23.89
45701;BMP280;36277;32.852;-116.998;2024-03-02T09:49:19;100461.31;;;23.87
45701;BMP280;36277;32.852;-116.998;2024-03-02T09:51:47;100457.13;;;23.91
45701;BMP280;36277;32.852;-116.998;2024-03-02T09:54:16;100448.56;;;23.86
45701;BMP280;36277;32.852;-116.998;2024-03-02T09:56:43;100445.13;;;23.84
45701;BMP280;36277;32.852;-116.998;2024-03-02T09:59:10;100431.34;;;23.84
45701;BMP280;36277;32.852;-116.998;2024-03-02T10:01:36;100404.81;;;23.83
45701;BMP280;36277;32.852;-116.998;2024-03-02T10:04:02;100403.78;;;23.84
45701;BMP280;36277;32.852;-116.998;2024-03-02T10:06:31;100393.44;;;23.86
45701;BMP280;36277;32.852;-116.998;2024-03-02T10:08:58;100399.09;;;23.85
45701;BMP280;36277;32.852;-116.998;2024-03-02T10:11:32;100393.44;;;23.86
45701;BMP280;36277;32.852;-116.998;2024-03-02T10:14:13;100389.78;;;23.86
45701;BMP280;36277;32.852;-116.998;2024-03-02T10:16:41;100383.81;;;23.82
45701;BMP280;36277;32.852;-116.998;2024-03-02T10:19:22;100387.59;;;23.81
45701;BMP280;36277;32.852;-116.998;2024-03-02T10:21:51;100396.25;;;23.78
45701;BMP280;36277;32.852;-116.998;2024-03-02T10:24:19;100384.38;;;23.78
45701;BMP280;36277;32.852;-116.998;2024-03-02T10:26:45;100389.34;;;23.74
45701;BMP280;36277;32.852;-116.998;2024-03-02T10:29:12;100394.50;;;23.77
45701;BMP280;36277;32.852;-116.998;2024-03-02T10:31:40;100394.03;;;23.74
45701;BMP280;36277;32.852;-116.998;2024-03-02T10:34:07;100384.72;;;23.75
45701;BMP280;36277;32.852;-116.998;2024-03-02T10:36:35;100382.88;;;23.67
45701;BMP280;36277;32.852;-116.998;2024-03-02T10:39:05;100365.59;;;23.73
45701;BMP280;36277;32.852;-116.998;2024-03-02T10:41:36;100363.03;;;23.72
45701;BMP280;36277;32.852;-116.998;2024-03-02T10:44:04;100359.41;;;23.71
45701;BMP280;36277;32.852;-116.998;2024-03-02T10:46:33;100349.81;;;23.67
45701;BMP280;36277;32.852;-116.998;2024-03-02T10:49:00;100351.53;;;23.68
45701;BMP280;36277;32.852;-116.998;2024-03-02T10:51:32;100344.69;;;23.64
45701;BMP280;36277;32.852;-116.998;2024-03-02T10:54:00;100342.09;;;23.63
45701;BMP280;36277;32.852;-116.998;2024-03-02T10:56:31;100335.38;;;23.65
45701;BMP280;36277;32.852;-116.998;2024-03-02T10:59:10;100328.16;;;23.64
45701;BMP280;36277;32.852;-116.998;2024-03-02T11:01:39;100334.31;;;23.66
45701;BMP280;36277;32.852;-116.998;2024-03-02T11:04:09;100337.94;;;23.67
45701;BMP280;36277;32.852;-116.998;2024-03-02T11:06:41;100327.63;;;23.61
45701;BMP280;36277;32.852;-116.998;2024-03-02T11:09:13;100327.84;;;23.59
45701;BMP280;36277;32.852;-116.998;2024-03-02T11:11:43;100320.25;;;23.61
45701;BMP280;36277;32.852;-116.998;2024-03-02T11:14:13;100315.78;;;23.60
45701;BMP280;36277;32.852;-116.998;2024-03-02T11:16:42;100311.00;;;23.54
45701;BMP280;36277;32.852;-116.998;2024-03-02T11:19:13;100309.28;;;23.53
45701;BMP280;36277;32.852;-116.998;2024-03-02T11:21:41;100307.94;;;23.49
45701;BMP280;36277;32.852;-116.998;2024-03-02T11:27:58;100303.31;;;23.50
45701;BMP280;36277;32.852;-116.998;2024-03-02T11:33:08;100291.25;;;23.51
45701;BMP280;36277;32.852;-116.998;2024-03-02T11:35:40;100283.44;;;23.54
45701;BMP280;36277;32.852;-116.998;2024-03-02T11:38:12;100290.38;;;23.50
45701;BMP280;36277;32.852;-116.998;2024-03-02T11:40:42;100281.16;;;23.58
45701;BMP280;36277;32.852;-116.998;2024-03-02T11:43:09;100282.41;;;23.55
45701;BMP280;36277;32.852;-116.998;2024-03-02T11:45:36;100284.31;;;23.55
45701;BMP280;36277;32.852;-116.998;2024-03-02T11:48:06;100280.91;;;23.53
45701;BMP280;36277;32.852;-116.998;2024-03-02T11:50:49;100278.41;;;23.58
45701;BMP280;36277;32.852;-116.998;2024-03-02T11:53:16;100285.91;;;23.49
45701;BMP280;36277;32.852;-116.998;2024-03-02T11:55:44;100287.97;;;23.47
45701;BMP280;36277;32.852;-116.998;2024-03-02T11:58:15;100281.28;;;23.50
45701;BMP280;36277;32.852;-116.998;2024-03-02T12:00:56;100289.69;;;23.48
45701;BMP280;36277;32.852;-116.998;2024-03-02T12:03:24;100292.81;;;23.45
45701;BMP280;36277;32.852;-116.998;2024-03-02T12:05:54;100301.97;;;23.46
45701;BMP280;36277;32.852;-116.998;2024-03-02T12:08:21;100305.75;;;23.45
45701;BMP280;36277;32.852;-116.998;2024-03-02T12:10:58;100291.78;;;23.46
45701;BMP280;36277;32.852;-116.998;2024-03-02T12:13:26;100294.06;;;23.43
45701;BMP280;36277;32.852;-116.998;2024-03-02T12:15:56;100298.31;;;23.45
45701;BMP280;36277;32.852;-116.998;2024-03-02T12:18:22;100298.72;;;23.42
45701;BMP280;36277;32.852;-116.998;2024-03-02T12:20:50;100301.47;;;23.42
45701;BMP280;36277;32.852;-116.998;2024-03-02T12:23:22;100301.66;;;23.41
45701;BMP280;36277;32.852;-116.998;2024-03-02T12:25:48;100305.94;;;23.43
45701;BMP280;36277;32.852;-116.998;2024-03-02T12:28:15;100299.41;;;23.44
45701;BMP280;36277;32.852;-116.998;2024-03-02T12:30:42;100294.44;;;23.40
45701;BMP280;36277;32.852;-116.998;2024-03-02T12:33:08;100300.13;;;23.38
45701;BMP280;36277;32.852;-116.998;2024-03-02T12:35:36;100292.53;;;23.40
45701;BMP280;36277;32.852;-116.998;2024-03-02T12:38:03;100293.75;;;23.38
45701;BMP280;36277;32.852;-116.998;2024-03-02T12:40:30;100289.44;;;23.43
45701;BMP280;36277;32.852;-116.998;2024-03-02T12:42:57;100290.63;;;23.41
45701;BMP280;36277;32.852;-116.998;2024-03-02T12:45:24;100284.44;;;23.39
45701;BMP280;36277;32.852;-116.998;2024-03-02T12:47:51;100289.44;;;23.43
45701;BMP280;36277;32.852;-116.998;2024-03-02T12:50:17;100293.03;;;23.44
45701;BMP280;36277;32.852;-116.998;2024-03-02T12:52:51;100297.28;;;23.46
45701;BMP280;36277;32.852;-116.998;2024-03-02T12:55:17;100297.00;;;23.41
45701;BMP280;36277;32.852;-116.998;2024-03-02T12:57:44;100289.13;;;23.38
45701;BMP280;36277;32.852;-116.998;2024-03-02T13:00:11;100294.44;;;23.40
45701;BMP280;36277;32.852;-116.998;2024-03-02T13:02:42;100300.81;;;23.40
45701;BMP280;36277;32.852;-116.998;2024-03-02T13:05:09;100292.91;;;23.37
45701;BMP280;36277;32.852;-116.998;2024-03-02T13:07:38;100294.13;;;23.35
45701;BMP280;36277;32.852;-116.998;2024-03-02T13:10:06;100293.94;;;23.36
45701;BMP280;36277;32.852;-116.998;2024-03-02T13:12:35;100278.94;;;23.39
45701;BMP280;36277;32.852;-116.998;2024-03-02T13:15:03;100276.75;;;23.34
45701;BMP280;36277;32.852;-116.998;2024-03-02T13:17:30;100269.53;;;23.33
45701;BMP280;36277;32.852;-116.998;2024-03-02T13:19:59;100272.28;;;23.33
45701;BMP280;36277;32.852;-116.998;2024-03-02T13:22:26;100272.97;;;23.35
45701;BMP280;36277;32.852;-116.998;2024-03-02T13:24:53;100281.22;;;23.35
45701;BMP280;36277;32.852;-116.998;2024-03-02T13:27:23;100273.69;;;23.29
45701;BMP280;36277;32.852;-116.998;2024-03-02T13:29:49;100274.72;;;23.28
45701;BMP280;36277;32.852;-116.998;2024-03-02T13:32:16;100287.28;;;23.31
45701;BMP280;36277;32.852;-116.998;2024-03-02T13:34:43;100290.78;;;23.25